Time;durP1;ratioP1;P1;durP2;ratioP2;P2;SDS_P1;SDS_P2;PMS_P1;PMS_P2;Temp;Humidity;BMP_temperature;BMP_pressure;BME280_temperature;BME280_humidity;BME280_pressure;Samples;Min_cycle;Max_cycle;Signal;HPM_P1;HPM_P2
2021/01/16 00:00:52;;;;;;;23.23;14.68;;;;;;;1.42;71.06;101608.16;4918354;29;20056;-84
2021/01/16 00:03:18;;;;;;;26.52;16.13;;;;;;;1.40;71.00;101606.41;4916316;29;20044;-83
2021/01/16 00:05:49;;;;;;;26.47;15.70;;;;;;;1.43;71.47;101609.03;4901248;29;20078;-84
2021/01/16 00:08:18;;;;;;;24.27;15.90;;;;;;;1.40;71.15;101609.91;4917500;29;20086;-83
2021/01/16 00:10:53;;;;;;;27.00;16.90;;;;;;;1.36;71.46;101599.41;4917865;29;20048;-83
2021/01/16 00:13:23;;;;;;;28.10;16.58;;;;;;;1.40;71.02;101603.81;4901027;29;20048;-83
2021/01/16 00:15:50;;;;;;;27.27;16.00;;;;;;;1.40;71.34;101607.28;4920913;29;20520;-83
2021/01/16 00:18:23;;;;;;;30.52;16.60;;;;;;;1.38;71.10;101606.41;4915751;29;20794;-83
2021/01/16 00:21:01;;;;;;;24.55;14.90;;;;;;;1.39;70.92;101608.16;4901846;29;20087;-83
2021/01/16 00:23:28;;;;;;;27.45;16.38;;;;;;;1.37;70.95;101606.38;4921528;29;20498;-83
2021/01/16 00:25:56;;;;;;;29.90;16.25;;;;;;;1.35;70.65;101608.09;4921178;29;20048;-83
2021/01/16 00:28:25;;;;;;;27.98;16.42;;;;;;;1.35;70.77;101602.88;4901810;29;20056;-83
2021/01/16 00:30:54;;;;;;;28.67;16.33;;;;;;;1.41;70.37;101600.34;4923846;29;20079;-83
2021/01/16 00:33:25;;;;;;;25.70;16.23;;;;;;;1.35;70.92;101593.31;4902686;29;20057;-82
2021/01/16 00:35:54;;;;;;;29.52;15.77;;;;;;;1.40;70.32;101602.06;4921083;29;20062;-83
2021/01/16 00:38:23;;;;;;;27.40;15.88;;;;;;;1.40;70.09;101606.41;4924463;29;20067;-83
2021/01/16 00:40:49;;;;;;;26.67;16.23;;;;;;;1.39;69.95;101599.44;4927732;29;20131;-83
2021/01/16 00:43:17;;;;;;;27.15;16.55;;;;;;;1.34;70.21;101595.91;4910053;29;20066;-84
2021/01/16 00:45:45;;;;;;;26.85;16.58;;;;;;;1.39;70.99;101602.94;4928286;29;20050;-84
2021/01/16 00:48:12;;;;;;;26.88;16.83;;;;;;;1.44;70.41;101596.84;4928376;29;20062;-83
2021/01/16 00:50:40;;;;;;;26.25;15.75;;;;;;;1.42;70.28;101596.84;4939065;29;20084;-83
2021/01/16 00:53:08;;;;;;;26.58;15.43;;;;;;;1.39;69.78;101599.44;4931871;29;20055;-84
2021/01/16 00:55:35;;;;;;;27.00;14.48;;;;;;;1.39;69.80;101597.72;4927958;29;20055;-84
2021/01/16 00:58:08;;;;;;;26.70;15.32;;;;;;;1.40;69.53;101596.84;4926454;29;20044;-85
2021/01/16 01:00:36;;;;;;;23.20;14.55;;;;;;;1.35;69.40;101587.22;4922475;29;20062;-84
2021/01/16 01:03:03;;;;;;;26.40;15.40;;;;;;;1.36;69.07;101597.69;4931467;29;20601;-84
2021/01/16 01:05:30;;;;;;;24.85;14.40;;;;;;;1.32;68.93;101587.19;4918804;29;20063;-84
2021/01/16 01:07:56;;;;;;;23.48;14.13;;;;;;;1.33;69.05;101586.31;4916567;29;20106;-83
2021/01/16 01:10:30;;;;;;;23.15;13.60;;;;;;;1.23;69.10;101572.31;4921273;29;20067;-84
2021/01/16 01:12:57;;;;;;;24.67;14.25;;;;;;;1.29;69.34;101581.94;4912737;29;20053;-84
2021/01/16 01:15:24;;;;;;;22.85;13.82;;;;;;;1.33;69.09;101591.53;4901417;29;20066;-84
2021/01/16 01:17:55;;;;;;;23.00;14.20;;;;;;;1.30;68.89;101586.28;4921219;29;20055;-83
2021/01/16 01:20:22;;;;;;;23.85;13.95;;;;;;;1.28;69.23;101583.66;4912124;29;20076;-84
2021/01/16 01:22:49;;;;;;;26.17;14.63;;;;;;;1.30;68.79;101591.50;4915562;29;20050;-85
2021/01/16 01:25:16;;;;;;;24.77;14.65;;;;;;;1.28;68.44;101591.50;4928718;29;20040;-83
2021/01/16 01:27:53;;;;;;;23.05;14.75;;;;;;;1.31;68.34;101588.03;4924540;29;20147;-84
2021/01/16 01:30:25;;;;;;;22.52;13.82;;;;;;;1.30;68.40;101588.91;4923570;29;20066;-85
2021/01/16 01:32:53;;;;;;;23.58;13.93;;;;;;;1.28;68.20;101595.84;4935287;29;20083;-83
2021/01/16 01:35:20;;;;;;;22.83;14.40;;;;;;;1.25;69.07;101591.50;4937222;29;20044;-83
2021/01/16 01:37:52;;;;;;;23.92;14.30;;;;;;;1.24;68.99;101594.97;4933153;29;20063;-83
2021/01/16 01:40:21;;;;;;;24.13;14.20;;;;;;;1.26;69.04;101593.22;4937199;29;20063;-83
2021/01/16 01:42:50;;;;;;;24.45;13.75;;;;;;;1.26;68.71;101590.59;4905297;29;20068;-84
2021/01/16 01:45:17;;;;;;;22.55;14.38;;;;;;;1.21;68.52;101594.91;4932793;29;20060;-84
2021/01/16 01:47:45;;;;;;;22.25;13.20;;;;;;;1.22;68.48;101595.78;4918968;29;20052;-84
2021/01/16 01:50:15;;;;;;;21.70;13.68;;;;;;;1.23;68.24;101597.53;4920499;29;20075;-84
2021/01/16 01:52:41;;;;;;;22.50;13.77;;;;;;;1.22;68.32;101595.78;4919704;29;20083;-84
2021/01/16 01:55:10;;;;;;;22.52;13.57;;;;;;;1.24;68.12;101600.16;4914463;29;20056;-84
2021/01/16 01:57:38;;;;;;;21.92;13.45;;;;;;;1.24;67.80;101594.06;4924465;29;20070;-84
2021/01/16 02:00:10;;;;;;;21.80;12.82;;;;;;;1.17;68.36;101581.81;4909847;29;20043;-84
2021/01/16 02:02:36;;;;;;;21.60;13.27;;;;;;;1.21;68.14;101589.69;4926949;29;20087;-84
2021/01/16 02:05:06;;;;;;;22.10;13.18;;;;;;;1.22;68.31;101595.78;4925547;29;20052;-84
2021/01/16 02:07:39;;;;;;;24.13;14.10;;;;;;;1.22;68.17;101603.63;4926398;29;20048;-84
2021/01/16 02:10:22;;;;;;;22.23;12.93;;;;;;;1.16;68.05;101599.19;4918360;29;20138;-83
2021/01/16 02:12:54;;;;;;;24.88;14.65;;;;;;;1.19;68.44;101606.19;4918452;29;20078;-84
2021/01/16 02:15:38;;;;;;;23.15;13.52;;;;;;;1.19;68.22;101595.75;4922066;29;20115;-84
2021/01/16 02:18:31;;;;;;;20.17;12.82;;;;;;;1.21;67.63;101600.13;4930893;29;20057;-84
2021/01/16 02:21:01;;;;;;;20.70;12.82;;;;;;;1.23;68.06;101602.75;4937956;29;20051;-83
2021/01/16 02:23:27;;;;;;;23.73;13.63;;;;;;;1.20;68.50;101595.78;4912905;29;20105;-84
2021/01/16 02:26:15;;;;;;;24.52;13.15;;;;;;;1.18;68.78;101602.69;4939784;29;20052;-85
2021/01/16 02:28:57;;;;;;;22.45;13.20;;;;;;;1.09;69.14;101594.78;4938979;29;20111;-84
2021/01/16 02:31:32;;;;;;;23.92;13.02;;;;;;;1.04;69.26;101594.75;4931912;29;20058;-83
2021/01/16 02:34:01;;;;;;;20.92;12.73;;;;;;;0.92;69.29;101607.66;4919457;29;20048;-84
2021/01/16 02:36:33;;;;;;;21.95;12.40;;;;;;;0.86;69.10;101604.94;4934949;29;20186;-84
2021/01/16 02:39:13;;;;;;;20.20;11.70;;;;;;;0.77;69.58;101602.25;4923183;29;20131;-84
2021/01/16 02:41:47;;;;;;;19.95;11.88;;;;;;;0.81;69.90;101597.91;4906964;29;20195;-83
2021/01/16 02:44:22;;;;;;;19.85;11.20;;;;;;;0.76;69.75;101602.22;4931431;29;20070;-84
2021/01/16 02:46:53;;;;;;;20.35;11.70;;;;;;;0.68;68.47;101603.00;4909160;29;20175;-84
2021/01/16 02:49:36;;;;;;;17.00;10.45;;;;;;;0.59;68.54;101589.84;4918197;29;20043;-84
2021/01/16 02:52:05;;;;;;;17.60;9.68;;;;;;;0.58;67.34;101606.34;4934166;29;20159;-84
2021/01/16 02:54:35;;;;;;;17.25;10.13;;;;;;;0.47;67.64;101600.13;4926550;29;20065;-85
2021/01/16 02:57:03;;;;;;;;;;;;;;;0.47;67.87;101605.34;4931877;29;20047;-84
2021/01/16 02:59:34;;;;;;;16.33;9.98;;;;;;;0.44;66.91;101607.03;4932939;29;19930;-84
2021/01/16 03:02:03;;;;;;;15.90;9.65;;;;;;;0.32;66.77;101595.56;4932191;29;20079;-84
2021/01/16 03:04:32;;;;;;;16.50;9.30;;;;;;;0.31;66.73;101601.66;4934742;29;20032;-85
2021/01/16 03:07:03;;;;;;;14.25;8.65;;;;;;;0.34;66.70;101596.47;4921736;29;20048;-84
2021/01/16 03:09:30;;;;;;;15.40;8.98;;;;;;;0.31;66.15;101596.44;4933662;29;20052;-84
2021/01/16 03:11:57;;;;;;;15.65;9.15;;;;;;;0.25;66.29;101574.63;4940566;29;20066;-85
2021/01/16 03:14:31;;;;;;;16.60;9.27;;;;;;;0.33;66.30;101586.88;4915688;29;20189;-85
2021/01/16 03:17:08;;;;;;;13.43;8.63;;;;;;;0.24;66.52;101586.78;4912825;29;20084;-85
2021/01/16 03:19:39;;;;;;;14.98;9.30;;;;;;;0.20;66.89;101581.50;4925658;29;20054;-84
2021/01/16 03:22:17;;;;;;;14.52;9.18;;;;;;;0.14;67.01;101571.88;4927798;29;20083;-84
2021/01/16 03:24:45;;;;;;;14.07;8.82;;;;;;;0.12;67.50;101586.59;4928462;29;20051;-84
2021/01/16 03:27:18;;;;;;;14.45;9.05;;;;;;;0.06;67.15;101580.41;4913782;29;20079;-84
2021/01/16 03:29:46;;;;;;;17.30;9.60;;;;;;;-0.06;67.80;101581.13;4924467;29;20456;-83
2021/01/16 03:32:18;;;;;;;14.68;8.57;;;;;;;-0.04;68.17;101601.13;4933356;29;20055;-83
2021/01/16 03:34:47;;;;;;;16.40;9.55;;;;;;;-0.15;68.21;101600.06;4926080;29;20032;-85
2021/01/16 03:37:15;;;;;;;16.05;9.43;;;;;;;-0.25;68.51;101589.50;4910801;29;20081;-85
2021/01/16 03:39:45;;;;;;;15.50;8.93;;;;;;;-0.22;68.07;101602.56;4906479;29;20451;-83
2021/01/16 03:42:12;;;;;;;15.60;8.93;;;;;;;-0.26;68.57;101596.44;4908575;29;20148;-84
2021/01/16 03:44:39;;;;;;;13.77;7.85;;;;;;;-0.15;68.34;101605.28;4934322;29;20111;-84
2021/01/16 03:47:06;;;;;;;16.88;9.23;;;;;;;-0.16;68.30;101606.13;4919007;29;20095;-83
2021/01/16 03:49:33;;;;;;;15.38;9.45;;;;;;;-0.08;68.56;101604.53;4928989;29;20052;-83
2021/01/16 03:52:01;;;;;;;13.38;8.35;;;;;;;0.09;67.13;101606.53;4923301;29;20100;-84
2021/01/16 03:54:28;;;;;;;15.57;9.13;;;;;;;0.01;67.56;101595.97;4925451;29;20119;-84
2021/01/16 03:56:54;;;;;;;14.00;8.60;;;;;;;-0.02;67.27;101593.34;4925995;29;20101;-85
2021/01/16 03:59:20;;;;;;;16.38;9.35;;;;;;;-0.06;67.70;101592.41;4925741;29;20128;-83
2021/01/16 04:01:48;;;;;;;16.23;9.05;;;;;;;-0.05;67.64;101595.91;4929832;29;20058;-83
2021/01/16 04:04:15;;;;;;;17.08;9.32;;;;;;;-0.02;66.82;101585.53;4923049;29;20040;-84
2021/01/16 04:06:43;;;;;;;16.92;9.13;;;;;;;-0.06;66.92;101588.94;4913112;29;20512;-82
2021/01/16 04:09:09;;;;;;;16.85;9.60;;;;;;;-0.07;66.49;101584.56;4908906;29;20083;-82
2021/01/16 04:11:36;;;;;;;16.65;9.40;;;;;;;-0.05;66.51;101588.09;4923185;29;20050;-85
2021/01/16 04:14:03;;;;;;;17.77;9.65;;;;;;;0.03;65.40;101586.47;4919644;29;20048;-82
2021/01/16 04:16:31;;;;;;;16.02;9.05;;;;;;;-0.02;66.25;101590.75;4924553;29;20526;-84
2021/01/16 04:19:00;;;;;;;17.65;10.07;;;;;;;-0.07;65.62;101597.59;4910926;29;20051;-84
2021/01/16 04:21:27;;;;;;;16.30;9.45;;;;;;;-0.11;66.22;101601.00;4920552;29;20664;-84
2021/01/16 04:23:53;;;;;;;17.80;9.80;;;;;;;-0.10;66.43;101602.75;4920299;29;20049;-84
2021/01/16 04:26:19;;;;;;;15.65;9.05;;;;;;;-0.03;67.17;101610.69;4922595;29;20395;-84
2021/01/16 04:28:46;;;;;;;16.20;8.75;;;;;;;0.01;66.76;101606.38;4911915;29;20056;-83
2021/01/16 04:31:13;;;;;;;16.90;9.00;;;;;;;0.14;66.26;101608.34;4919604;29;20080;-84
2021/01/16 04:33:39;;;;;;;16.67;9.77;;;;;;;0.20;66.19;101608.41;4906897;29;20056;-84
2021/01/16 04:36:06;;;;;;;15.80;9.27;;;;;;;0.20;65.31;101605.81;4924307;29;20052;-84
2021/01/16 04:38:37;;;;;;;15.63;9.30;;;;;;;0.19;65.53;101605.78;4925933;29;20092;-84
2021/01/16 04:41:04;;;;;;;19.60;9.65;;;;;;;0.23;65.86;101605.88;4921145;29;20604;-84
2021/01/16 04:43:30;;;;;;;18.20;9.93;;;;;;;0.25;65.82;101605.88;4923145;29;20054;-84
2021/01/16 04:46:06;;;;;;;16.48;9.20;;;;;;;0.24;64.79;101594.59;4922761;29;20060;-83
2021/01/16 04:48:35;;;;;;;18.95;9.88;;;;;;;0.27;64.97;101607.66;4922582;29;20569;-84
2021/01/16 04:51:05;;;;;;;17.38;9.73;;;;;;;0.22;65.17;101617.13;4902072;29;20108;-84
2021/01/16 04:53:39;;;;;;;17.40;9.93;;;;;;;0.16;66.16;101606.63;4920891;29;20048;-85
2021/01/16 04:56:10;;;;;;;16.02;9.20;;;;;;;0.21;66.22;101615.38;4908053;29;20112;-85
2021/01/16 04:58:39;;;;;;;18.73;10.48;;;;;;;0.26;65.72;101602.44;4923444;29;20138;-84
2021/01/16 05:01:09;;;;;;;17.00;9.65;;;;;;;0.24;65.80;101607.63;4925005;29;20052;-85
2021/01/16 05:03:44;;;;;;;18.33;9.93;;;;;;;0.29;65.88;101619.00;4924100;29;20087;-85
2021/01/16 05:06:14;;;;;;;15.95;9.40;;;;;;;0.33;65.57;101610.34;4923654;29;20502;-83
2021/01/16 05:08:43;;;;;;;18.85;9.73;;;;;;;0.34;65.48;101619.03;4923819;29;20162;-85
2021/01/16 05:11:24;;;;;;;18.80;10.48;;;;;;;0.30;65.26;101610.31;4915619;29;20070;-85
2021/01/16 05:14:19;;;;;;;16.67;9.10;;;;;;;0.27;65.55;101606.78;4923864;29;20072;-85
2021/01/16 05:16:56;;;;;;;14.68;8.75;;;;;;;0.29;65.25;101608.56;4924376;29;20055;-85
2021/01/16 05:19:28;;;;;;;18.30;10.25;;;;;;;0.28;65.75;101598.13;4905357;29;20087;-85
2021/01/16 05:21:57;;;;;;;17.10;8.98;;;;;;;0.31;65.99;101592.97;4907072;29;20134;-85
2021/01/16 05:24:23;;;;;;;16.45;9.80;;;;;;;0.33;65.13;101594.72;4903885;29;20052;-84
2021/01/16 05:27:00;;;;;;;18.70;9.10;;;;;;;0.32;65.46;101598.16;4920471;29;20048;-85
2021/01/16 05:29:28;;;;;;;16.55;10.02;;;;;;;0.36;65.26;101606.91;4924428;29;20056;-84
2021/01/16 05:31:56;;;;;;;15.57;9.00;;;;;;;0.40;64.52;101605.22;4924427;29;20078;-84
2021/01/16 05:34:25;;;;;;;15.88;9.10;;;;;;;0.34;64.91;101595.59;4922202;29;20044;-84
2021/01/16 05:36:53;;;;;;;15.93;8.65;;;;;;;0.35;64.50;101598.22;4924077;29;20104;-83
2021/01/16 05:39:22;;;;;;;18.17;10.35;;;;;;;0.37;64.87;101594.75;4920262;29;20127;-85
2021/01/16 05:41:48;;;;;;;16.90;9.85;;;;;;;0.39;65.66;101596.53;4925577;29;20052;-84
2021/01/16 05:44:15;;;;;;;16.20;9.50;;;;;;;0.38;64.92;101586.09;4938274;29;20052;-84
2021/01/16 05:46:44;;;;;;;17.60;9.85;;;;;;;0.31;64.81;101586.03;4925382;29;20138;-83
2021/01/16 05:49:16;;;;;;;20.08;9.90;;;;;;;0.40;64.57;101595.69;4931075;29;20157;-84
2021/01/16 05:51:44;;;;;;;16.08;9.85;;;;;;;0.42;64.09;101590.50;4922035;29;20133;-84
2021/01/16 05:54:14;;;;;;;16.98;9.68;;;;;;;0.42;63.82;101590.50;4920432;29;20052;-84
2021/01/16 05:56:42;;;;;;;14.25;8.82;;;;;;;0.40;63.68;101587.88;4928149;29;20056;-84
2021/01/16 05:59:15;;;;;;;16.02;9.13;;;;;;;0.38;63.59;101580.88;4922492;29;20126;-84
2021/01/16 06:01:47;;;;;;;15.45;8.85;;;;;;;0.39;63.51;101570.47;4926554;29;20075;-85
2021/01/16 06:04:21;;;;;;;14.23;8.68;;;;;;;0.39;62.76;101572.22;4929372;29;20053;-85
2021/01/16 06:06:48;;;;;;;13.48;8.30;;;;;;;0.34;62.82;101572.13;4932242;29;20086;-85
2021/01/16 06:09:17;;;;;;;18.60;8.77;;;;;;;0.30;63.37;101567.75;4907686;29;20080;-84
2021/01/16 06:11:46;;;;;;;14.98;8.88;;;;;;;0.21;63.06;101549.38;4902366;29;20120;-85
2021/01/16 06:14:13;;;;;;;15.20;8.50;;;;;;;0.28;62.52;101565.13;4928561;29;20120;-83
2021/01/16 06:17:06;;;;;;;13.27;8.30;;;;;;;0.30;62.37;101568.63;4935334;29;20119;-84
2021/01/16 06:19:40;;;;;;;14.38;8.32;;;;;;;0.36;62.07;101562.63;4956535;29;20060;-83
2021/01/16 06:22:11;;;;;;;15.43;8.88;;;;;;;0.31;62.21;101565.19;4917933;29;20087;-82
2021/01/16 06:24:38;;;;;;;15.13;8.55;;;;;;;0.29;62.73;101571.22;4902910;29;20474;-82
2021/01/16 06:27:06;;;;;;;14.13;8.48;;;;;;;0.29;62.36;101572.09;4923413;29;20500;-83
2021/01/16 06:29:36;;;;;;;13.48;7.88;;;;;;;0.26;62.56;101571.16;4917171;29;20135;-83
2021/01/16 06:32:06;;;;;;;14.52;8.23;;;;;;;0.24;62.96;101571.16;4933370;29;20044;-82
2021/01/16 06:34:39;;;;;;;14.75;8.32;;;;;;;0.25;62.87;101569.41;4939184;29;20055;-83
2021/01/16 06:37:11;;;;;;;13.10;7.20;;;;;;;0.31;61.03;101579.94;4909094;29;20044;-82
2021/01/16 06:39:48;;;;;;;11.50;6.88;;;;;;;0.26;61.32;101571.16;4923941;29;20048;-83
2021/01/16 06:42:22;;;;;;;11.40;7.05;;;;;;;0.22;61.03;101572.84;4910517;29;20044;-83
2021/01/16 06:45:09;;;;;;;10.60;6.60;;;;;;;0.27;60.85;101584.22;4908845;29;20049;-83
2021/01/16 06:47:38;;;;;;;10.23;6.20;;;;;;;0.28;60.57;101575.56;4910673;29;20467;-83
2021/01/16 06:50:08;;;;;;;11.60;6.65;;;;;;;0.29;60.10;101579.91;4931752;29;20054;-82
2021/01/16 06:52:37;;;;;;;11.73;6.70;;;;;;;0.33;59.79;101581.69;4937068;29;20124;-83
2021/01/16 06:55:05;;;;;;;9.82;5.82;;;;;;;0.34;59.11;101590.38;4915029;29;20052;-82
2021/01/16 06:57:33;;;;;;;10.68;6.38;;;;;;;0.28;59.52;101585.09;4922998;29;20048;-83
2021/01/16 07:00:04;;;;;;;9.02;6.20;;;;;;;0.27;59.38;101585.94;4917402;29;20062;-83
2021/01/16 07:02:31;;;;;;;;;;;;;;;0.26;59.82;101587.69;4932896;29;20066;-83
2021/01/16 07:05:04;;;;;;;12.10;6.47;;;;;;;0.22;59.48;101580.66;4909385;29;19934;-83
2021/01/16 07:07:31;;;;;;;11.73;6.55;;;;;;;0.26;60.22;101592.00;4917422;29;20067;-84
2021/01/16 07:10:02;;;;;;;11.32;6.88;;;;;;;0.25;60.30;101585.94;4921635;29;20084;-83
2021/01/16 07:12:29;;;;;;;11.10;6.78;;;;;;;0.20;60.01;101584.09;4912756;29;20056;-83
2021/01/16 07:14:56;;;;;;;10.77;6.70;;;;;;;0.23;60.28;101597.16;4907120;29;20059;-83
2021/01/16 07:17:24;;;;;;;9.75;6.93;;;;;;;0.24;60.43;101585.91;4912311;29;20052;-84
2021/01/16 07:19:53;;;;;;;13.65;7.88;;;;;;;0.21;60.99;101578.91;4921964;29;20474;-83
2021/01/16 07:22:21;;;;;;;14.00;7.55;;;;;;;0.23;60.28;101590.22;4919499;29;20047;-84
2021/01/16 07:24:48;;;;;;;12.00;6.70;;;;;;;0.22;60.44;101578.06;4909616;29;20057;-83
2021/01/16 07:27:17;;;;;;;13.00;7.78;;;;;;;0.26;60.18;101589.41;4912330;29;20056;-84
2021/01/16 07:29:45;;;;;;;13.07;7.35;;;;;;;0.21;59.88;101578.91;4921457;29;20048;-84
2021/01/16 07:32:16;;;;;;;14.38;7.40;;;;;;;0.23;59.25;101592.84;4922423;29;20254;-83
2021/01/16 07:34:49;;;;;;;11.27;6.93;;;;;;;0.15;59.54;101584.06;4901787;29;20060;-84
2021/01/16 07:37:20;;;;;;;12.73;6.95;;;;;;;0.11;59.13;101576.16;4913459;29;20055;-83
2021/01/16 07:39:46;;;;;;;10.15;6.07;;;;;;;0.09;58.43;101586.56;4922998;29;20104;-83
2021/01/16 07:42:14;;;;;;;10.98;6.22;;;;;;;0.04;58.46;101585.59;4923762;29;20052;-83
2021/01/16 07:44:46;;;;;;;10.48;6.30;;;;;;;0.06;58.65;101585.63;4923650;29;20053;-83
2021/01/16 07:47:22;;;;;;;15.55;5.78;;;;;;;0.10;58.76;101585.72;4930901;29;20087;-83
2021/01/16 07:49:54;;;;;;;8.50;5.63;;;;;;;0.04;58.27;101569.09;4926326;29;20087;-84
2021/01/16 07:52:23;;;;;;;10.48;5.85;;;;;;;0.00;58.10;101569.06;4905892;29;20108;-84
2021/01/16 07:55:19;;;;;;;10.52;5.35;;;;;;;0.04;58.13;101562.16;4920830;29;20048;-83
2021/01/16 07:57:50;;;;;;;10.38;5.70;;;;;;;0.10;58.22;101567.47;4934217;29;20048;-84
2021/01/16 08:00:20;;;;;;;12.00;5.05;;;;;;;0.17;57.54;101578.84;4937381;29;20075;-83
2021/01/16 08:03:24;;;;;;;10.13;4.57;;;;;;;0.22;56.62;101571.97;4927288;29;21198;-84
2021/01/16 08:06:01;;;;;;;6.50;3.80;;;;;;;0.24;56.52;101563.34;4922409;29;20544;-83
2021/01/16 08:08:48;;;;;;;7.05;4.45;;;;;;;0.32;56.17;101572.09;4904410;29;20107;-83
2021/01/16 08:11:19;;;;;;;7.65;4.80;;;;;;;0.29;55.55;101561.69;4928090;29;20541;-85
2021/01/16 08:13:47;;;;;;;6.90;4.15;;;;;;;0.22;56.37;101556.34;4926368;29;20048;-86
2021/01/16 08:16:14;;;;;;;9.80;5.00;;;;;;;0.25;55.89;101557.28;4934504;28;20044;-85
2021/01/16 08:18:46;;;;;;;9.27;4.47;;;;;;;0.30;56.35;101555.63;4938684;28;20036;-85
2021/01/16 08:21:14;;;;;;;8.25;5.18;;;;;;;0.30;56.24;101545.19;4921640;28;20040;-85
2021/01/16 08:23:48;;;;;;;8.65;4.75;;;;;;;0.38;55.56;101555.69;4938572;28;20036;-85
2021/01/16 08:26:19;;;;;;;7.05;4.30;;;;;;;0.46;55.74;101551.47;4937106;28;20100;-84
2021/01/16 08:28:45;;;;;;;;;;;;;;;0.50;55.93;101550.63;4923578;28;20103;-85
2021/01/16 08:31:31;;;;;;;7.25;3.78;;;;;;;0.53;54.00;101549.81;4934194;29;19917;-84
2021/01/16 08:33:59;;;;;;;6.85;3.55;;;;;;;0.55;54.42;101548.09;4940155;29;20151;-84
2021/01/16 08:36:27;;;;;;;6.93;4.00;;;;;;;0.62;54.74;101558.63;4938716;29;20056;-83
2021/01/16 08:38:54;;;;;;;5.68;3.42;;;;;;;0.68;54.70;101571.72;4928448;29;20063;-84
2021/01/16 08:41:23;;;;;;;6.68;4.38;;;;;;;0.71;54.49;101568.28;4929323;29;20043;-85
2021/01/16 08:43:55;;;;;;;7.13;4.22;;;;;;;0.70;53.83;101570.00;4926760;29;20067;-84
2021/01/16 08:46:37;;;;;;;5.95;4.00;;;;;;;0.75;58.68;101572.69;4927125;29;20066;-84
2021/01/16 08:49:14;;;;;;;5.93;4.13;;;;;;;0.86;57.04;101559.75;4926495;29;20087;-84
2021/01/16 08:51:51;;;;;;;7.28;3.97;;;;;;;0.86;54.93;101546.72;4934304;29;20074;-85
2021/01/16 08:54:22;;;;;;;6.28;4.07;;;;;;;0.93;53.67;101557.25;4935529;29;20048;-85
2021/01/16 08:57:11;;;;;;;6.18;4.10;;;;;;;0.91;53.36;101564.16;4929845;29;20061;-84
2021/01/16 08:59:38;;;;;;;5.20;3.60;;;;;;;0.88;53.17;101566.72;4918706;29;20078;-85
2021/01/16 09:02:11;;;;;;;6.28;4.40;;;;;;;0.92;53.82;101565.91;4916757;29;20055;-85
2021/01/16 09:04:41;;;;;;;7.13;4.05;;;;;;;0.90;54.22;101567.63;4923890;29;20514;-83
2021/01/16 09:07:15;;;;;;;7.75;4.40;;;;;;;0.87;54.02;101562.38;4923410;29;20091;-85
2021/01/16 09:09:59;;;;;;;10.40;5.00;;;;;;;0.86;54.43;101573.66;4939507;29;20056;-84
2021/01/16 09:12:32;;;;;;;15.43;10.05;;;;;;;0.89;54.06;101568.50;4925771;29;20056;-88
2021/01/16 09:15:25;;;;;;;7.72;4.75;;;;;;;0.90;53.74;101561.53;4919225;29;20048;-87
2021/01/16 09:18:07;;;;;;;9.57;4.80;;;;;;;0.94;54.00;101563.34;4905345;29;20059;-82
2021/01/16 09:20:36;;;;;;;8.68;4.40;;;;;;;0.96;54.38;101559.84;4920052;29;20044;-80
2021/01/16 09:23:18;;;;;;;8.45;4.50;;;;;;;0.93;53.46;101562.47;4928393;29;20119;-81
2021/01/16 09:25:49;;;;;;;8.07;4.22;;;;;;;0.84;53.62;101546.69;4932618;29;20134;-82
2021/01/16 09:28:16;;;;;;;8.45;3.95;;;;;;;0.96;53.20;101561.59;4918727;29;20090;-81
2021/01/16 09:30:42;;;;;;;6.40;4.35;;;;;;;1.04;53.77;101560.81;4905693;29;20043;-81
2021/01/16 09:33:23;;;;;;;9.80;4.20;;;;;;;1.11;52.34;101540.88;4926378;29;20052;-88
2021/01/16 09:35:51;;;;;;;8.15;4.97;;;;;;;1.19;52.26;101559.22;4919040;29;20714;-89
2021/01/16 09:38:19;;;;;;;8.05;4.30;;;;;;;1.17;51.42;101554.00;4917455;29;20170;-88
2021/01/16 09:40:50;;;;;;;6.45;4.28;;;;;;;1.16;50.94;101551.38;4921909;29;20103;-81
2021/01/16 09:43:26;;;;;;;8.07;4.57;;;;;;;1.16;50.89;101549.63;4900930;29;20060;-84
2021/01/16 09:45:57;;;;;;;9.80;4.78;;;;;;;1.17;51.85;101555.72;4913287;29;20055;-84
2021/01/16 09:48:46;;;;;;;7.82;4.47;;;;;;;1.21;52.07;101553.16;4915917;29;20040;-82
2021/01/16 09:51:13;;;;;;;7.40;4.28;;;;;;;1.19;51.11;101548.78;4927427;29;20505;-80
2021/01/16 09:53:42;;;;;;;7.07;4.57;;;;;;;1.26;51.51;101548.00;4898783;29;20067;-84
2021/01/16 09:56:09;;;;;;;7.38;4.32;;;;;;;1.32;50.69;101543.69;4918637;29;20044;-81
2021/01/16 09:58:40;;;;;;;7.03;4.68;;;;;;;1.41;51.22;101545.53;4919383;29;20478;-83
2021/01/16 10:01:22;;;;;;;8.32;4.93;;;;;;;1.42;50.18;101531.59;4924536;29;20052;-84
2021/01/16 10:03:51;;;;;;;7.22;4.38;;;;;;;1.40;50.59;101538.56;4914109;29;20155;-82
2021/01/16 10:06:19;;;;;;;7.10;4.80;;;;;;;1.44;50.39;101529.88;4919819;29;20069;-82
2021/01/16 10:08:47;;;;;;;6.93;4.10;;;;;;;1.41;49.67;101522.03;4922370;29;20052;-86
2021/01/16 10:11:34;;;;;;;8.02;4.85;;;;;;;1.34;50.40;101525.44;4928477;29;20044;-88
2021/01/16 10:14:17;;;;;;;7.00;4.75;;;;;;;1.29;50.36;101501.91;4923991;29;20067;-89
2021/01/16 10:16:45;;;;;;;8.43;5.35;;;;;;;1.40;50.72;101509.84;4932656;29;20067;-89
2021/01/16 10:19:14;;;;;;;7.72;5.03;;;;;;;1.47;50.86;101513.38;4933268;29;20059;-88
2021/01/16 10:22:12;;;;;;;6.88;4.57;;;;;;;1.60;51.06;101510.84;4932165;29;20072;-89
2021/01/16 10:24:45;;;;;;;9.10;4.72;;;;;;;1.62;50.60;101506.53;4929762;29;20054;-89
2021/01/16 10:34:33;;;;;;;8.30;4.90;;;;;;;1.70;50.58;101494.41;4920358;29;20115;-86
2021/01/16 10:37:05;;;;;;;8.07;5.30;;;;;;;1.63;49.83;101486.50;4912304;29;20102;-86
2021/01/16 10:39:38;;;;;;;9.70;5.47;;;;;;;1.71;51.23;101488.34;4915292;29;20060;-84
2021/01/16 10:42:12;;;;;;;7.55;5.47;;;;;;;1.77;50.14;101466.59;4914090;29;20066;-86
2021/01/16 10:44:40;;;;;;;12.98;5.72;;;;;;;1.87;50.61;101477.97;4899300;29;20171;-85
2021/01/16 10:47:38;;;;;;;9.20;5.28;;;;;;;1.93;50.68;101472.78;4913330;29;20064;-85
2021/01/16 10:50:07;;;;;;;8.27;5.47;;;;;;;1.84;50.85;101462.28;4919400;29;20080;-85
2021/01/16 10:52:34;;;;;;;10.55;5.45;;;;;;;1.94;50.23;101479.75;4915599;29;20087;-85
2021/01/16 10:55:09;;;;;;;8.50;5.57;;;;;;;1.94;50.86;101466.69;4896978;29;20135;-85
2021/01/16 10:57:48;;;;;;;9.25;5.25;;;;;;;2.02;50.42;101462.38;4915677;29;20072;-84
2021/01/16 11:00:19;;;;;;;7.93;4.90;;;;;;;1.98;49.55;101460.63;4917332;29;20060;-85
2021/01/16 11:02:47;;;;;;;8.05;5.15;;;;;;;1.77;49.59;101462.22;4914722;29;20154;-84
2021/01/16 11:05:17;;;;;;;7.60;4.95;;;;;;;1.72;50.35;101448.31;4914321;29;20048;-85
2021/01/16 11:07:44;;;;;;;6.72;4.72;;;;;;;1.64;50.07;101438.66;4902805;29;20399;-85
2021/01/16 11:10:12;;;;;;;7.22;5.03;;;;;;;1.72;50.58;101453.53;4898935;29;20048;-86
2021/01/16 11:12:40;;;;;;;8.85;5.57;;;;;;;1.81;50.10;101443.97;4911644;29;20075;-85
2021/01/16 11:15:26;;;;;;;9.55;5.63;;;;;;;1.88;50.46;101443.16;4895753;29;20606;-86
2021/01/16 11:17:56;;;;;;;9.45;5.75;;;;;;;1.93;49.80;101436.19;4895945;29;20055;-84
2021/01/16 11:20:24;;;;;;;11.20;5.40;;;;;;;1.93;49.91;101436.19;4911473;29;20059;-85
2021/01/16 11:23:03;;;;;;;9.75;5.85;;;;;;;1.89;49.60;101434.47;4917419;29;20182;-84
2021/01/16 11:25:41;;;;;;;17.00;7.65;;;;;;;1.77;49.67;101423.06;4898531;29;20063;-86
2021/01/16 11:28:09;;;;;;;8.88;6.05;;;;;;;1.76;50.34;101423.06;4919418;29;20139;-85
2021/01/16 11:30:42;;;;;;;12.52;5.70;;;;;;;1.80;50.08;101429.16;4916993;29;20076;-84
2021/01/16 11:33:15;;;;;;;10.20;6.40;;;;;;;1.80;50.37;101418.72;4918133;29;20647;-84
2021/01/16 11:35:45;;;;;;;12.52;6.35;;;;;;;1.85;50.66;101420.50;4916619;29;20047;-84
2021/01/16 11:38:45;;;;;;;8.88;6.03;;;;;;;1.91;51.91;101415.28;4918103;29;20143;-85
2021/01/16 11:41:57;;;;;;;9.55;5.90;;;;;;;1.87;50.12;101423.13;4919249;29;20115;-84
2021/01/16 11:44:23;;;;;;;9.63;6.25;;;;;;;1.84;50.51;101421.38;4925531;29;20052;-85
2021/01/16 11:46:53;;;;;;;11.70;7.03;;;;;;;1.80;50.68;101418.72;4935807;29;20056;-85
2021/01/16 11:49:21;;;;;;;10.43;6.80;;;;;;;1.75;51.43;101416.97;4906194;29;20068;-85
2021/01/16 11:51:48;;;;;;;10.02;6.78;;;;;;;1.68;50.96;101407.38;4918167;29;20497;-85